Time;durP1;ratioP1;P1;durP2;ratioP2;P2;SDS_P1;SDS_P2;PMS_P1;PMS_P2;Temp;Humidity;BMP_temperature;BMP_pressure;BME280_temperature;BME280_humidity;BME280_pressure;Samples;Min_cycle;Max_cycle;Signal;HPM_P1;HPM_P2
2021/05/04 00:02:00;;;;;;;6.87;2.67;;;12.90;72.40;;;;;;5086900;28;20514;-85
2021/05/04 00:04:26;;;;;;;6.40;2.60;;;12.90;73.10;;;;;;5096036;28;20989;-85
2021/05/04 00:06:53;;;;;;;8.53;3.20;;;12.80;72.40;;;;;;5098192;28;20481;-86
2021/05/04 00:09:20;;;;;;;8.57;2.70;;;12.90;72.40;;;;;;5097365;28;21040;-87
2021/05/04 00:11:46;;;;;;;6.23;2.40;;;12.90;72.10;;;;;;5091495;28;20629;-87
2021/05/04 00:14:13;;;;;;;6.63;2.40;;;12.90;73.90;;;;;;5083596;28;20961;-85
2021/05/04 00:16:39;;;;;;;7.90;2.73;;;12.90;74.00;;;;;;5100104;28;20485;-85
2021/05/04 00:19:06;;;;;;;6.27;2.40;;;12.80;73.40;;;;;;5095503;28;20521;-85
2021/05/04 00:21:32;;;;;;;6.43;2.80;;;12.80;73.10;;;;;;5095915;28;20519;-86
2021/05/04 00:23:59;;;;;;;6.00;2.20;;;12.80;72.80;;;;;;5078641;28;20486;-85
2021/05/04 00:26:26;;;;;;;8.30;2.70;;;12.80;72.40;;;;;;5077809;28;20933;-85
2021/05/04 00:28:52;;;;;;;9.87;3.80;;;12.80;72.60;;;;;;5095997;28;20458;-85
2021/05/04 00:31:19;;;;;;;6.97;2.60;;;12.80;73.70;;;;;;5095777;28;20533;-86
2021/05/04 00:33:45;;;;;;;7.60;2.30;;;12.80;73.00;;;;;;5094601;28;20965;-84
2021/05/04 00:36:11;;;;;;;8.50;2.30;;;12.80;73.30;;;;;;5093808;28;20970;-83
2021/05/04 00:38:38;;;;;;;6.37;2.37;;;12.80;73.70;;;;;;5060938;28;20538;-85
2021/05/04 00:41:05;;;;;;;6.73;2.50;;;12.80;74.30;;;;;;5074702;28;20537;-85
2021/05/04 00:43:32;;;;;;;6.13;1.93;;;12.80;73.70;;;;;;5075155;28;20531;-85
2021/05/04 00:46:00;;;;;;;7.80;2.20;;;12.80;74.00;;;;;;5090084;28;20443;-85
2021/05/04 00:48:28;;;;;;;6.20;2.17;;;12.80;73.30;;;;;;5075570;28;20542;-86
2021/05/04 00:50:55;;;;;;;6.70;2.20;;;12.80;73.10;;;;;;5074808;28;20494;-86
2021/05/04 00:53:22;;;;;;;5.77;2.20;;;12.90;73.20;;;;;;5083909;28;20537;-84
2021/05/04 00:55:49;;;;;;;7.30;2.27;;;12.90;73.00;;;;;;5094801;28;20525;-85
2021/05/04 00:58:16;;;;;;;5.43;2.00;;;12.90;73.20;;;;;;5094417;28;21094;-85
2021/05/04 01:00:43;;;;;;;5.90;1.90;;;12.90;73.30;;;;;;5095326;28;20454;-85
2021/05/04 01:03:11;;;;;;;8.90;2.30;;;12.80;73.30;;;;;;5084468;28;20474;-84
2021/05/04 01:05:38;;;;;;;6.73;1.90;;;12.90;73.40;;;;;;5074661;28;20478;-84
2021/05/04 01:08:04;;;;;;;5.20;2.00;;;12.90;73.60;;;;;;5087260;28;20478;-84
2021/05/04 01:10:31;;;;;;;5.87;1.90;;;12.80;73.80;;;;;;5089034;28;20552;-86
2021/05/04 01:12:57;;;;;;;8.57;2.57;;;12.80;73.90;;;;;;5094467;28;20518;-85
2021/05/04 01:15:24;;;;;;;6.70;2.17;;;12.90;73.20;;;;;;5095211;28;20525;-83
2021/05/04 01:17:51;;;;;;;30.17;16.43;;;12.80;73.80;;;;;;5094828;28;20487;-87
2021/05/04 01:20:17;;;;;;;9.17;2.17;;;12.90;74.10;;;;;;5094722;28;20474;-84
2021/05/04 01:22:44;;;;;;;6.73;1.93;;;12.80;74.20;;;;;;5095005;28;20486;-86
2021/05/04 01:25:11;;;;;;;5.80;1.97;;;12.90;73.60;;;;;;5084981;28;20526;-85
2021/05/04 01:27:38;;;;;;;6.70;2.00;;;12.90;74.80;;;;;;5061815;28;21077;-85
2021/05/04 01:30:05;;;;;;;5.97;2.20;;;12.90;73.90;;;;;;5095512;28;20637;-86
2021/05/04 01:32:32;;;;;;;7.47;1.90;;;12.90;75.40;;;;;;5094623;28;20484;-85
2021/05/04 01:34:58;;;;;;;7.53;2.13;;;12.90;74.80;;;;;;5080016;28;20451;-86
2021/05/04 01:37:25;;;;;;;5.80;1.80;;;12.90;75.10;;;;;;5084119;28;20503;-85
2021/05/04 01:39:53;;;;;;;6.47;2.23;;;12.90;74.10;;;;;;5098867;28;20978;-85
2021/05/04 01:42:21;;;;;;;7.70;1.70;;;12.90;74.50;;;;;;5094873;28;20517;-84
2021/05/04 01:44:47;;;;;;;9.90;2.87;;;12.90;73.80;;;;;;5099550;28;20533;-84
2021/05/04 01:47:14;;;;;;;8.80;1.83;;;13.00;73.60;;;;;;5092211;28;20542;-85
2021/05/04 01:49:41;;;;;;;10.63;1.73;;;13.00;73.50;;;;;;5090601;28;20498;-85
2021/05/04 01:52:09;;;;;;;6.10;1.83;;;13.00;74.80;;;;;;5094216;28;20471;-85
2021/05/04 01:54:36;;;;;;;7.40;1.70;;;13.00;73.90;;;;;;5079386;28;20584;-85
2021/05/04 01:57:04;;;;;;;7.60;1.87;;;13.00;73.70;;;;;;5081741;28;20895;-87
2021/05/04 01:59:31;;;;;;;5.37;1.93;;;13.00;73.40;;;;;;5086445;28;20538;-86
2021/05/04 02:01:58;;;;;;;6.70;2.07;;;13.10;73.80;;;;;;5094515;28;21092;-87
2021/05/04 02:04:25;;;;;;;11.27;1.90;;;13.10;72.40;;;;;;5093674;28;20585;-84
2021/05/04 02:06:52;;;;;;;5.30;1.90;;;13.10;73.40;;;;;;5095587;28;20466;-87
2021/05/04 02:09:18;;;;;;;8.13;1.67;;;13.10;73.30;;;;;;5080627;28;20489;-86
2021/05/04 02:11:45;;;;;;;10.00;1.80;;;13.10;73.50;;;;;;5083260;28;20457;-85
2021/05/04 02:14:12;;;;;;;7.47;1.57;;;13.10;74.10;;;;;;5104968;28;20461;-87
2021/05/04 02:16:39;;;;;;;7.20;1.87;;;13.10;73.90;;;;;;5101266;28;20535;-86
2021/05/04 02:19:06;;;;;;;8.00;2.10;;;13.00;73.00;;;;;;5077254;28;20456;-85
2021/05/04 02:21:32;;;;;;;11.07;2.17;;;13.00;73.00;;;;;;5079720;28;20492;-85
2021/05/04 02:23:59;;;;;;;9.13;1.63;;;13.00;76.30;;;;;;5097677;28;20896;-85
2021/05/04 02:26:25;;;;;;;11.23;2.10;;;12.90;77.70;;;;;;5096561;28;20482;-84
2021/05/04 02:28:51;;;;;;;13.93;2.10;;;12.70;82.50;;;;;;5096532;28;20553;-84
2021/05/04 02:31:19;;;;;;;6.43;1.60;;;12.50;86.70;;;;;;5083912;28;20526;-84
2021/05/04 02:33:45;;;;;;;14.83;2.27;;;12.10;92.60;;;;;;5096787;28;20450;-84
2021/05/04 02:36:12;;;;;;;9.90;2.17;;;11.70;99.90;;;;;;5090302;28;20478;-84
2021/05/04 02:38:40;;;;;;;9.00;1.70;;;11.40;99.90;;;;;;5076085;28;20541;-85
2021/05/04 02:41:07;;;;;;;11.53;2.30;;;11.20;99.90;;;;;;5139936;22;20549;-86
2021/05/04 02:43:34;;;;;;;5.73;1.63;;;10.90;99.90;;;;;;5143081;27;21011;-84
2021/05/04 02:46:01;;;;;;;6.70;1.53;;;10.80;99.90;;;;;;5143396;27;20484;-84
2021/05/04 02:48:28;;;;;;;20.20;7.93;;;10.70;99.90;;;;;;5148944;27;20478;-85
2021/05/04 02:50:55;;;;;;;151.60;140.07;;;10.50;99.90;;;;;;5142298;27;20559;-85
2021/05/04 02:53:21;;;;;;;584.60;494.13;;;10.30;99.90;;;;;;5143031;27;20432;-85
2021/05/04 02:55:48;;;;;;;1999.90;999.90;;;10.10;99.90;;;;;;5142303;27;20481;-85
2021/05/04 02:58:15;;;;;;;1999.90;999.90;;;9.90;99.90;;;;;;5124982;28;20495;-84
2021/05/04 03:00:41;;;;;;;166.70;150.43;;;9.70;99.90;;;;;;5142979;27;20468;-83
2021/05/04 03:03:10;;;;;;;146.47;133.83;;;9.50;99.90;;;;;;5129778;27;20512;-82
2021/05/04 03:05:37;;;;;;;212.17;197.13;;;9.30;99.90;;;;;;5131279;27;20927;-82
2021/05/04 03:08:04;;;;;;;215.83;199.27;;;9.30;99.90;;;;;;5143367;27;20455;-83
2021/05/04 03:10:30;;;;;;;83.73;64.23;;;9.20;99.90;;;;;;5137447;27;20950;-84
2021/05/04 03:12:56;;;;;;;263.60;243.57;;;9.00;99.90;;;;;;5120655;28;20536;-81
2021/05/04 03:15:23;;;;;;;130.57;118.93;;;9.00;99.90;;;;;;5132848;27;20472;-84
2021/05/04 03:17:49;;;;;;;67.70;48.03;;;8.90;99.90;;;;;;5140728;27;20884;-82
2021/05/04 03:20:15;;;;;;;55.97;24.83;;;8.80;99.90;;;;;;5125911;27;21118;-84
2021/05/04 03:22:43;;;;;;;54.27;19.97;;;8.70;99.90;;;;;;5121628;28;21039;-82
2021/05/04 03:25:11;;;;;;;48.23;14.80;;;8.60;99.90;;;;;;5134046;27;20480;-81
2021/05/04 03:27:38;;;;;;;53.43;21.53;;;8.60;99.90;;;;;;5126214;28;20485;-82
2021/05/04 03:30:07;;;;;;;49.30;7.97;;;8.60;99.90;;;;;;5125396;27;20896;-80
2021/05/04 03:32:53;;;;;;;363.93;300.27;;;8.60;99.90;;;;;;5132230;27;20456;-80
2021/05/04 03:35:20;;;;;;;44.37;6.57;;;8.50;99.90;;;;;;5137335;27;20596;-82
2021/05/04 03:37:54;;;;;;;756.47;542.97;;;8.50;99.90;;;;;;5125302;27;21008;-79
2021/05/04 03:40:25;;;;;;;60.27;34.07;;;8.40;99.90;;;;;;5119398;28;20468;-81
2021/05/04 03:42:51;;;;;;;38.93;6.30;;;8.40;99.90;;;;;;5120390;27;20559;-83
2021/05/04 03:45:18;;;;;;;39.83;5.73;;;8.40;99.90;;;;;;5119337;28;20437;-82
2021/05/04 03:47:45;;;;;;;45.23;6.90;;;8.40;99.90;;;;;;5133235;27;20901;-84
2021/05/04 03:50:15;;;;;;;562.20;524.40;;;8.40;99.90;;;;;;5136135;27;20509;-81
2021/05/04 03:52:41;;;;;;;84.07;75.83;;;8.40;99.90;;;;;;5139866;27;20278;-85
2021/05/04 03:55:10;;;;;;;172.68;159.48;;;8.70;99.90;;;;;;5140520;27;20738;-79
2021/05/04 03:57:37;;;;;;;69.93;56.40;;;9.00;99.90;;;;;;5139611;27;20230;-85
2021/05/04 04:00:05;;;;;;;62.80;38.47;;;9.20;99.90;;;;;;5140170;27;20503;-84
2021/05/04 04:02:32;;;;;;;52.87;21.07;;;9.20;99.90;;;;;;5139363;27;20564;-87
2021/05/04 04:04:58;;;;;;;115.87;106.13;;;9.10;99.90;;;;;;5141666;27;20452;-85
2021/05/04 04:07:25;;;;;;;82.37;74.10;;;8.80;99.90;;;;;;5121695;27;20455;-85
2021/05/04 04:09:51;;;;;;;525.57;471.93;;;8.70;99.90;;;;;;5133162;27;20495;-83
2021/05/04 04:12:18;;;;;;;46.67;13.93;;;8.50;99.90;;;;;;5122090;27;20513;-85
2021/05/04 04:14:45;;;;;;;62.40;51.67;;;8.50;99.90;;;;;;5119328;28;21154;-84
2021/05/04 04:17:11;;;;;;;48.73;25.30;;;8.40;99.90;;;;;;5135448;27;20479;-85
2021/05/04 04:19:38;;;;;;;78.20;70.07;;;8.50;99.90;;;;;;5139970;27;20481;-86
2021/05/04 04:22:04;;;;;;;265.43;242.53;;;8.40;99.90;;;;;;5140676;27;20479;-86
2021/05/04 04:24:31;;;;;;;51.97;32.77;;;8.40;99.90;;;;;;5143798;27;20831;-86
2021/05/04 04:26:57;;;;;;;40.10;10.47;;;8.40;99.90;;;;;;5120375;28;20943;-85
2021/05/04 04:29:25;;;;;;;622.47;566.80;;;8.40;99.90;;;;;;5115056;28;20449;-83
2021/05/04 04:31:52;;;;;;;45.67;15.80;;;8.40;99.90;;;;;;5116695;28;20452;-83
2021/05/04 04:34:19;;;;;;;41.33;17.07;;;8.40;99.90;;;;;;5116855;28;20449;-85
2021/05/04 04:36:48;;;;;;;36.83;4.60;;;8.40;99.90;;;;;;5117336;28;20540;-81
2021/05/04 04:39:14;;;;;;;38.40;7.60;;;8.50;99.90;;;;;;5116968;28;20525;-84
2021/05/04 04:41:41;;;;;;;36.57;5.93;;;8.50;99.90;;;;;;5116488;28;20507;-85
2021/05/04 04:44:08;;;;;;;31.67;2.20;;;8.60;99.90;;;;;;5116159;28;20480;-85
2021/05/04 04:46:41;;;;;;;38.07;7.60;;;8.70;99.90;;;;;;5115840;28;20466;-84
2021/05/04 04:49:09;;;;;;;46.40;22.30;;;8.70;99.90;;;;;;5115677;28;20556;-85
2021/05/04 04:51:36;;;;;;;56.13;43.30;;;8.80;99.90;;;;;;5115639;28;20473;-84
2021/05/04 04:54:03;;;;;;;38.83;9.77;;;8.80;99.90;;;;;;5115852;28;20540;-84
2021/05/04 04:56:31;;;;;;;63.53;47.43;;;8.80;99.90;;;;;;5117031;28;20437;-83
2021/05/04 04:58:57;;;;;;;157.47;145.97;;;8.80;99.90;;;;;;5130028;28;20484;-86
2021/05/04 05:01:23;;;;;;;37.70;5.53;;;8.80;99.90;;;;;;5138037;28;20479;-86
2021/05/04 05:03:51;;;;;;;37.10;5.13;;;8.90;99.90;;;;;;5131177;28;20570;-86
2021/05/04 05:06:38;;;;;;;98.00;89.03;;;8.90;99.90;;;;;;5137267;28;20875;-86
2021/05/04 05:09:07;;;;;;;36.40;7.93;;;9.00;99.90;;;;;;5138957;28;20814;-86
2021/05/04 05:11:34;;;;;;;44.63;10.10;;;9.00;99.90;;;;;;5134535;27;20571;-88
2021/05/04 05:14:00;;;;;;;41.13;8.80;;;9.00;99.90;;;;;;5127682;27;20497;-87
2021/05/04 05:16:27;;;;;;;42.53;9.73;;;9.00;99.90;;;;;;5142925;27;20456;-86
2021/05/04 05:19:13;;;;;;;;;;;;;;;;;;;;;
2021/05/04 05:21:41;;;;;;;75.50;65.43;;;9.10;99.90;;;;;;5131078;27;20530;-89
2021/05/04 05:24:08;;;;;;;40.83;3.60;;;9.10;99.90;;;;;;5131433;27;20448;-86
2021/05/04 05:26:35;;;;;;;40.23;10.07;;;9.20;99.90;;;;;;5131415;27;20468;-84
2021/05/04 05:29:02;;;;;;;50.03;19.93;;;9.20;99.90;;;;;;5127528;27;21314;-86
2021/05/04 05:34:51;;;;;;;42.30;5.47;;;9.30;99.90;;;;;;5005464;27;20431;-87
2021/05/04 05:37:18;;;;;;;42.47;7.07;;;9.20;99.90;;;;;;5143890;27;20472;-90
2021/05/04 05:39:44;;;;;;;257.47;236.80;;;9.30;99.90;;;;;;5127093;27;20485;-87
2021/05/04 05:42:11;;;;;;;254.63;235.10;;;9.30;99.90;;;;;;5131638;27;20529;-86
2021/05/04 05:44:38;;;;;;;64.93;56.77;;;9.20;99.90;;;;;;5142838;27;20439;-88
2021/05/04 05:47:04;;;;;;;64.53;57.13;;;9.20;99.90;;;;;;5139112;27;20460;-88
2021/05/04 05:49:37;;;;;;;334.50;302.73;;;9.20;99.90;;;;;;5129363;27;20448;-87
2021/05/04 05:52:04;;;;;;;47.23;28.33;;;9.00;99.90;;;;;;5135783;27;20515;-88
2021/05/04 05:54:31;;;;;;;47.93;33.33;;;8.90;99.90;;;;;;5134290;27;20460;-89
2021/05/04 05:56:57;;;;;;;34.27;6.50;;;8.90;99.90;;;;;;5134428;27;20459;-88
2021/05/04 05:59:24;;;;;;;197.13;177.90;;;8.70;99.90;;;;;;5144762;27;20456;-90
2021/05/04 06:01:51;;;;;;;230.27;211.83;;;8.60;99.90;;;;;;5122952;27;20429;-88
2021/05/04 06:04:18;;;;;;;36.90;10.37;;;8.40;99.90;;;;;;5119845;28;20429;-89
2021/05/04 06:06:45;;;;;;;40.87;6.47;;;8.40;99.90;;;;;;5135603;27;20441;-91
2021/05/04 06:09:23;;;;;;;37.53;17.13;;;8.40;99.90;;;;;;5125163;27;20442;-90
2021/05/04 06:11:49;;;;;;;37.97;7.47;;;8.40;99.90;;;;;;5136294;27;20437;-87
2021/05/04 06:14:16;;;;;;;31.80;4.23;;;8.40;99.90;;;;;;5132806;27;20472;-87
2021/05/04 06:16:43;;;;;;;50.67;40.43;;;8.40;99.90;;;;;;5132431;27;20456;-86
2021/05/04 06:19:09;;;;;;;30.70;5.40;;;8.40;99.90;;;;;;5136185;27;20455;-88
2021/05/04 06:21:36;;;;;;;33.70;11.63;;;8.50;99.90;;;;;;5132590;27;20508;-89
2021/05/04 06:24:08;;;;;;;51.10;39.33;;;8.60;99.90;;;;;;5141921;27;20507;-88
2021/05/04 06:26:36;;;;;;;32.83;4.20;;;8.60;99.90;;;;;;5144813;27;20559;-87
2021/05/04 06:29:04;;;;;;;36.87;9.17;;;8.60;99.90;;;;;;5142293;27;20472;-85
2021/05/04 06:31:31;;;;;;;87.73;79.67;;;8.60;99.90;;;;;;5142234;27;20853;-88
2021/05/04 06:33:57;;;;;;;35.30;7.43;;;8.70;99.90;;;;;;5142018;27;20444;-87
2021/05/04 06:36:24;;;;;;;34.00;3.90;;;8.70;99.90;;;;;;5143690;27;20444;-87
2021/05/04 06:38:50;;;;;;;34.83;3.83;;;8.90;99.90;;;;;;5140128;27;20452;-88
2021/05/04 06:41:17;;;;;;;35.90;4.63;;;9.00;99.90;;;;;;5137259;27;20503;-88
2021/05/04 06:43:44;;;;;;;45.37;20.97;;;9.00;99.90;;;;;;5133822;27;20504;-88
2021/05/04 06:46:10;;;;;;;45.23;20.33;;;9.20;99.90;;;;;;5142397;27;20506;-88
2021/05/04 06:48:41;;;;;;;36.80;4.23;;;9.30;99.90;;;;;;5133525;27;20449;-87
2021/05/04 06:54:27;;;;;;;146.07;131.70;;;9.60;99.90;;;;;;5023055;27;20481;-87
2021/05/04 06:57:02;;;;;;;107.40;95.67;;;9.70;99.90;;;;;;5125138;27;20453;-86
2021/05/04 06:59:30;;;;;;;31.17;3.80;;;9.70;99.90;;;;;;5133453;27;20436;-87
2021/05/04 07:01:59;;;;;;;39.63;17.87;;;9.60;99.90;;;;;;5144015;27;20444;-87
2021/05/04 07:04:25;;;;;;;41.87;17.30;;;9.50;99.90;;;;;;5143881;27;20457;-87
2021/05/04 07:06:51;;;;;;;35.87;7.93;;;9.50;99.90;;;;;;5148223;27;20444;-86
2021/05/04 07:09:18;;;;;;;145.30;131.47;;;9.30;99.90;;;;;;5150475;27;20431;-88
2021/05/04 07:11:54;;;;;;;51.73;46.30;;;9.30;99.90;;;;;;5147178;27;20577;-87
2021/05/04 07:14:21;;;;;;;37.03;4.50;;;9.30;99.90;;;;;;5144589;27;20433;-89
2021/05/04 07:16:48;;;;;;;33.57;4.87;;;9.40;99.90;;;;;;5140338;28;20434;-88
2021/05/04 07:19:16;;;;;;;251.07;233.40;;;9.50;99.90;;;;;;5156082;27;20425;-87
2021/05/04 07:21:43;;;;;;;41.17;16.23;;;9.60;99.90;;;;;;5163206;22;20584;-86
2021/05/04 07:24:11;;;;;;;44.00;22.23;;;9.60;99.90;;;;;;5110093;28;20477;-88
2021/05/04 07:26:43;;;;;;;33.63;5.70;;;9.60;99.90;;;;;;5113092;28;20463;-85
2021/05/04 07:29:10;;;;;;;31.63;4.37;;;9.70;99.90;;;;;;5106897;28;20461;-86
2021/05/04 07:31:37;;;;;;;36.80;8.27;;;9.60;99.90;;;;;;5099699;28;20458;-83
2021/05/04 07:34:04;;;;;;;34.47;9.43;;;9.60;99.90;;;;;;5100514;28;20434;-84
2021/05/04 07:36:31;;;;;;;38.07;11.93;;;9.60;99.90;;;;;;5107403;28;20449;-86
2021/05/04 07:38:58;;;;;;;29.40;3.40;;;9.60;99.90;;;;;;5111364;28;20520;-85
2021/05/04 07:41:24;;;;;;;32.53;11.53;;;9.70;99.90;;;;;;5100501;28;20453;-85
2021/05/04 07:43:51;;;;;;;61.77;50.93;;;9.70;99.90;;;;;;5106035;28;20469;-84
2021/05/04 07:46:17;;;;;;;49.47;35.73;;;9.70;99.90;;;;;;5110329;28;20962;-86
2021/05/04 07:48:44;;;;;;;47.63;29.33;;;9.70;99.90;;;;;;5099710;28;20645;-87
2021/05/04 07:51:11;;;;;;;48.43;30.03;;;9.80;99.90;;;;;;5103177;28;20476;-89
2021/05/04 07:53:38;;;;;;;36.17;11.37;;;9.90;99.90;;;;;;5099261;28;20457;-85
2021/05/04 07:56:05;;;;;;;31.67;4.13;;;10.10;99.90;;;;;;5100052;28;20443;-87
2021/05/04 07:58:32;;;;;;;38.97;13.20;;;10.10;99.90;;;;;;5099246;28;20518;-86
2021/05/04 08:00:59;;;;;;;62.93;55.27;;;10.00;99.90;;;;;;5112750;28;20457;-87
2021/05/04 08:03:27;;;;;;;28.77;2.63;;;10.00;99.90;;;;;;5099566;28;20477;-85
2021/05/04 08:05:53;;;;;;;46.10;35.03;;;10.10;99.90;;;;;;5098148;28;20980;-87
2021/05/04 08:08:21;;;;;;;46.23;28.23;;;10.30;99.90;;;;;;5097819;28;20450;-83
2021/05/04 08:10:47;;;;;;;47.27;20.03;;;10.60;99.90;;;;;;5097760;28;20485;-87
2021/05/04 08:13:14;;;;;;;221.40;204.40;;;10.80;99.90;;;;;;5099955;28;20450;-85
2021/05/04 08:18:21;;;;;;;45.70;23.57;;;11.00;99.90;;;;;;5101567;28;20978;-88
2021/05/04 08:20:50;;;;;;;35.50;12.93;;;11.10;99.90;;;;;;5096214;28;20466;-85
2021/05/04 08:23:18;;;;;;;51.53;42.30;;;11.20;99.90;;;;;;5095860;28;20473;-86
2021/05/04 08:25:45;;;;;;;117.53;106.13;;;11.00;99.90;;;;;;5096964;28;20815;-84
2021/05/04 08:28:12;;;;;;;34.40;10.00;;;10.70;99.90;;;;;;5097607;28;20471;-85
2021/05/04 08:30:38;;;;;;;134.40;121.00;;;10.60;99.90;;;;;;5097398;28;20470;-86
2021/05/04 08:33:05;;;;;;;40.40;19.77;;;10.50;99.90;;;;;;5113980;28;20528;-87
2021/05/04 08:35:31;;;;;;;33.13;11.67;;;10.50;99.90;;;;;;5104503;28;20885;-86
2021/05/04 08:37:58;;;;;;;30.90;10.23;;;10.50;99.90;;;;;;5099995;28;20975;-85
2021/05/04 08:40:26;;;;;;;73.20;65.80;;;10.40;99.90;;;;;;5101442;28;20466;-88
2021/05/04 08:42:54;;;;;;;104.97;96.37;;;10.50;99.90;;;;;;5097217;28;20535;-88
2021/05/04 08:45:21;;;;;;;39.33;24.17;;;10.80;99.90;;;;;;5095823;28;20497;-85
2021/05/04 08:47:49;;;;;;;48.00;31.23;;;11.30;99.90;;;;;;5099063;28;20561;-87
2021/05/04 08:50:17;;;;;;;36.53;12.37;;;11.80;99.90;;;;;;5107995;28;20500;-87
2021/05/04 08:52:46;;;;;;;52.90;33.93;;;12.30;99.90;;;;;;5103546;28;20473;-87
2021/05/04 08:55:14;;;;;;;120.70;110.60;;;12.50;99.90;;;;;;5091923;28;20453;-86
2021/05/04 08:57:41;;;;;;;59.07;52.70;;;12.40;99.90;;;;;;5094809;28;20525;-86
2021/05/04 09:00:11;;;;;;;51.17;25.87;;;12.60;99.90;;;;;;5097716;28;20527;-87
2021/05/04 09:02:54;;;;;;;360.40;332.33;;;12.70;99.90;;;;;;5100295;28;20565;-86
2021/05/04 09:05:26;;;;;;;200.53;186.37;;;13.30;99.90;;;;;;5097827;28;20442;-86
2021/05/04 09:07:52;;;;;;;388.37;357.97;;;13.40;99.90;;;;;;5094813;28;20453;-86
2021/05/04 09:10:29;;;;;;;71.23;64.07;;;13.40;99.90;;;;;;5097467;28;20607;-85
2021/05/04 09:13:00;;;;;;;93.47;85.37;;;13.30;99.90;;;;;;5099140;28;20449;-87
2021/05/04 09:15:53;;;;;;;75.10;59.37;;;12.70;99.90;;;;;;5110449;28;20456;-87
2021/05/04 09:21:36;;;;;;;31.60;4.87;;;11.40;99.90;;;;;;5115376;28;20458;-90
2021/05/04 09:24:19;;;;;;;100.03;90.57;;;11.10;99.90;;;;;;5104668;28;20495;-89
2021/05/04 09:26:45;;;;;;;40.97;19.57;;;10.70;99.90;;;;;;5107283;28;20450;-87
2021/05/04 09:29:12;;;;;;;34.43;17.20;;;10.70;99.90;;;;;;5100881;28;20447;-86
2021/05/04 09:31:41;;;;;;;33.40;7.10;;;10.70;99.90;;;;;;5101522;28;20474;-85
2021/05/04 09:34:09;;;;;;;43.43;22.13;;;10.70;99.90;;;;;;5103020;28;20517;-85
2021/05/04 09:36:40;;;;;;;36.53;17.63;;;10.60;99.90;;;;;;5098406;28;20584;-85
2021/05/04 09:39:09;;;;;;;52.73;43.17;;;10.50;99.90;;;;;;5100322;28;20446;-85
2021/05/04 09:41:36;;;;;;;90.10;82.37;;;10.40;99.90;;;;;;5097960;28;20512;-86
2021/05/04 09:44:02;;;;;;;34.07;8.63;;;10.20;99.90;;;;;;5097133;28;20477;-84
2021/05/04 09:46:47;;;;;;;29.63;7.77;;;10.20;99.90;;;;;;5110906;28;20441;-84
2021/05/04 09:49:30;;;;;;;94.87;87.57;;;10.40;99.90;;;;;;5108397;28;20485;-85
2021/05/04 09:52:34;;;;;;;304.00;280.70;;;10.50;99.90;;;;;;5105379;28;20859;-85
2021/05/04 09:55:09;;;;;;;34.73;17.23;;;10.60;99.90;;;;;;5107357;28;20456;-82
2021/05/04 09:57:41;;;;;;;115.87;105.97;;;11.00;99.90;;;;;;5104486;28;20422;-87
2021/05/04 10:00:10;;;;;;;32.00;7.03;;;11.70;99.90;;;;;;5105021;28;20474;-85
2021/05/04 10:02:39;;;;;;;108.67;99.53;;;13.00;99.90;;;;;;5102437;28;20580;-87
2021/05/04 10:05:07;;;;;;;457.10;429.20;;;15.20;99.90;;;;;;5100500;28;20474;-84
2021/05/04 10:07:34;;;;;;;446.93;416.00;;;17.50;99.90;;;;;;5099688;28;20533;-85
2021/05/04 10:10:04;;;;;;;689.90;615.73;;;18.90;99.90;;;;;;5105485;28;20470;-87
2021/05/04 10:12:31;;;;;;;862.30;703.27;;;19.70;99.90;;;;;;5119190;28;20448;-87
2021/05/04 10:14:59;;;;;;;1999.90;999.90;;;18.40;99.90;;;;;;5111424;28;20443;-87
2021/05/04 10:17:26;;;;;;;1999.90;999.90;;;17.60;99.90;;;;;;5108046;28;20454;-85
2021/05/04 10:19:54;;;;;;;913.60;532.33;;;17.70;99.90;;;;;;5109985;28;20533;-86
2021/05/04 10:22:22;;;;;;;692.77;641.90;;;17.60;99.90;;;;;;5118010;28;20465;-83
2021/05/04 10:24:50;;;;;;;6.40;1.70;;;17.70;99.90;;;;;;5116751;28;20478;-80
2021/05/04 10:27:19;;;;;;;7.07;1.77;;;19.10;99.90;;;;;;5101958;28;20830;-83
2021/05/04 10:29:50;;;;;;;7.07;1.83;;;19.80;99.90;;;;;;5114414;28;20544;-84
2021/05/04 10:32:37;;;;;;;8.57;1.90;;;20.30;99.90;;;;;;5119620;28;20540;-85
2021/05/04 10:35:36;;;;;;;9.17;2.60;;;20.30;99.90;;;;;;5117846;28;20454;-86
2021/05/04 10:38:04;;;;;;;7.43;1.70;;;20.40;99.90;;;;;;5100254;28;20446;-85
2021/05/04 10:40:34;;;;;;;8.40;1.60;;;19.30;99.90;;;;;;5097086;28;20492;-86
2021/05/04 10:43:01;;;;;;;8.63;1.63;;;18.70;99.90;;;;;;5107751;28;20504;-86
2021/05/04 10:45:51;;;;;;;6.87;2.10;;;18.40;99.90;;;;;;5100993;28;20485;-85
2021/05/04 10:48:18;;;;;;;15.70;1.97;;;19.20;99.90;;;;;;5076353;28;20471;-85
2021/05/04 10:50:50;;;;;;;6.80;1.60;;;19.40;99.90;;;;;;5095702;28;20683;-86
2021/05/04 10:53:18;;;;;;;6.07;1.50;;;18.10;99.90;;;;;;5106656;28;20458;-86
2021/05/04 10:56:08;;;;;;;650.70;591.73;;;16.90;99.90;;;;;;5111298;28;20446;-85
2021/05/04 10:58:56;;;;;;;1999.90;999.90;;;15.40;99.90;;;;;;5100790;28;20445;-88
2021/05/04 11:01:26;;;;;;;568.53;526.10;;;14.10;99.90;;;;;;5101716;28;20565;-88
2021/05/04 11:03:57;;;;;;;280.13;262.63;;;13.70;99.90;;;;;;5089533;28;20474;-88
2021/05/04 11:06:48;;;;;;;1114.93;953.63;;;13.70;99.90;;;;;;5092262;28;20434;-88
2021/05/04 11:09:19;;;;;;;657.57;616.03;;;14.20;99.90;;;;;;5101256;28;20452;-86
2021/05/04 11:11:48;;;;;;;975.20;884.73;;;16.10;99.90;;;;;;5093585;28;20462;-86
2021/05/04 11:14:29;;;;;;;975.93;898.03;;;16.00;99.90;;;;;;5098502;28;20981;-86
2021/05/04 11:17:14;;;;;;;840.33;784.13;;;15.70;99.90;;;;;;5080617;28;20458;-86
2021/05/04 11:19:44;;;;;;;773.33;713.77;;;16.10;99.90;;;;;;5087188;28;20450;-87
2021/05/04 11:22:23;;;;;;;1999.90;999.90;;;16.40;99.90;;;;;;5103640;28;20454;-86
2021/05/04 11:24:51;;;;;;;260.53;238.03;;;16.60;99.90;;;;;;5099439;28;20461;-83
2021/05/04 11:27:33;;;;;;;9.27;2.33;;;17.10;99.90;;;;;;5101033;28;20470;-87
2021/05/04 11:30:05;;;;;;;9.60;2.17;;;18.80;99.90;;;;;;5102217;28;20477;-87
2021/05/04 11:32:43;;;;;;;5.80;2.00;;;20.50;99.90;;;;;;5098775;28;20441;-88
2021/05/04 11:35:15;;;;;;;11.43;2.40;;;19.80;99.90;;;;;;5097772;28;20442;-87
2021/05/04 11:37:46;;;;;;;9.80;2.20;;;18.90;99.90;;;;;;5100017;28;20484;-87
2021/05/04 11:40:18;;;;;;;10.33;2.80;;;18.40;99.90;;;;;;5102128;28;20477;-88
2021/05/04 11:42:52;;;;;;;13.20;3.27;;;17.10;99.90;;;;;;5099375;28;20481;-88
2021/05/04 11:48:10;;;;;;;13.40;5.63;;;18.40;99.90;;;;;;5094753;28;20459;-90
2021/05/04 11:50:46;;;;;;;8.73;3.07;;;17.80;99.90;;;;;;5104032;28;20455;-87
2021/05/04 11:53:15;;;;;;;10.00;2.20;;;17.20;99.90;;;;;;5104682;28;20523;-87
2021/05/04 11:55:44;;;;;;;10.80;2.60;;;17.20;99.90;;;;;;5103293;28;20458;-87
2021/05/04 11:58:19;;;;;;;60.70;55.53;;;17.00;99.90;;;;;;5104044;28;20454;-86
2021/05/04 12:00:46;;;;;;;12.43;2.10;;;15.50;99.90;;;;;;5112699;28;20475;-88
2021/05/04 12:03:14;;;;;;;15.60;2.33;;;14.00;99.90;;;;;;5104436;28;20470;-84
2021/05/04 12:05:42;;;;;;;36.07;12.57;;;13.10;99.90;;;;;;5100817;28;20492;-87
2021/05/04 12:08:09;;;;;;;574.83;541.57;;;13.00;99.90;;;;;;5102921;28;20465;-86
2021/05/04 12:10:38;;;;;;;8.37;2.10;;;13.40;99.90;;;;;;5099119;28;20725;-85
2021/05/04 12:13:06;;;;;;;7.97;1.63;;;15.00;99.90;;;;;;5086572;28;20457;-85
2021/05/04 12:15:34;;;;;;;11.37;2.43;;;15.60;99.90;;;;;;5098245;28;20896;-85
2021/05/04 12:18:04;;;;;;;10.10;2.00;;;17.50;99.90;;;;;;5100769;28;20961;-85
2021/05/04 12:20:33;;;;;;;6.63;2.43;;;17.50;99.90;;;;;;5100273;28;20479;-87
2021/05/04 12:23:02;;;;;;;10.23;2.60;;;16.80;99.90;;;;;;5099213;28;20474;-85
2021/05/04 12:25:41;;;;;;;10.97;2.90;;;16.70;99.90;;;;;;5101791;28;20450;-88
2021/05/04 12:28:09;;;;;;;9.70;2.73;;;16.00;99.90;;;;;;5099793;28;20441;-85
2021/05/04 12:30:35;;;;;;;11.03;1.90;;;15.50;99.90;;;;;;5098566;28;20477;-87
2021/05/04 12:33:04;;;;;;;10.73;2.10;;;16.20;99.90;;;;;;5093974;28;20443;-85
2021/05/04 12:35:38;;;;;;;11.63;2.67;;;16.70;99.90;;;;;;5079846;28;20514;-85
2021/05/04 12:38:15;;;;;;;11.20;2.07;;;17.80;99.90;;;;;;5078901;28;20474;-87
2021/05/04 12:40:52;;;;;;;9.57;2.60;;;18.20;99.90;;;;;;5084305;28;20466;-86
2021/05/04 12:43:25;;;;;;;9.00;2.60;;;17.80;99.90;;;;;;5098986;28;20477;-87
2021/05/04 12:46:19;;;;;;;10.63;1.93;;;17.50;99.90;;;;;;5098530;28;20455;-84
2021/05/04 12:48:51;;;;;;;11.40;2.40;;;16.30;99.90;;;;;;5075459;28;20554;-85
2021/05/04 12:51:25;;;;;;;13.33;2.43;;;15.30;99.90;;;;;;5096004;28;20489;-87
2021/05/04 12:53:53;;;;;;;9.53;2.10;;;14.70;99.90;;;;;;5096951;28;20436;-85
2021/05/04 12:56:21;;;;;;;7.90;1.93;;;14.20;99.90;;;;;;5107399;28;20442;-85
2021/05/04 12:59:01;;;;;;;6.07;1.50;;;13.90;99.90;;;;;;5099409;28;20454;-84
2021/05/04 13:01:52;;;;;;;10.57;2.70;;;13.40;99.90;;;;;;5103191;28;20510;-85